createdAt,value
2022-12-17T00:01:51.391Z,14.37
2022-12-17T00:04:37.858Z,12.43
2022-12-17T00:07:23.427Z,11.77
2022-12-17T00:10:08.673Z,12.60
2022-12-17T00:12:56.417Z,12.23
2022-12-17T00:15:42.877Z,12.83
2022-12-17T00:18:29.404Z,12.50
2022-12-17T00:21:16.323Z,10.93
2022-12-17T00:24:02.066Z,12.37
2022-12-17T00:26:47.396Z,11.40
2022-12-17T00:29:33.193Z,11.40
2022-12-17T00:32:18.647Z,12.07
2022-12-17T00:35:04.101Z,15.70
2022-12-17T00:37:49.828Z,19.33
2022-12-17T00:40:35.417Z,16.83
2022-12-17T00:43:26.356Z,16.27
2022-12-17T00:46:12.750Z,14.67
2022-12-17T00:48:58.137Z,13.30
2022-12-17T00:51:43.681Z,16.40
2022-12-17T00:54:29.923Z,14.80
2022-12-17T00:57:15.180Z,13.93
2022-12-17T01:00:00.377Z,12.67
2022-12-17T01:02:45.958Z,12.50
2022-12-17T01:05:31.302Z,12.17
2022-12-17T01:08:24.602Z,13.37
2022-12-17T01:11:09.831Z,12.30
2022-12-17T01:13:56.122Z,11.27
2022-12-17T01:16:42.157Z,11.97
2022-12-17T01:19:27.493Z,11.50
2022-12-17T01:22:13.025Z,11.03
2022-12-17T01:24:58.596Z,12.20
2022-12-17T01:27:45.004Z,12.63
2022-12-17T01:30:30.866Z,12.40
2022-12-17T01:33:22.012Z,12.13
2022-12-17T01:36:07.775Z,11.07
2022-12-17T01:38:53.112Z,12.00
2022-12-17T01:41:38.940Z,11.73
2022-12-17T01:45:02.937Z,11.90
2022-12-17T01:48:03.244Z,12.23
2022-12-17T01:50:52.824Z,11.10
2022-12-17T01:53:42.759Z,9.80
2022-12-17T01:56:28.793Z,10.43
2022-12-17T01:59:15.312Z,11.30
2022-12-17T02:02:00.833Z,11.63
2022-12-17T02:04:46.496Z,11.37
2022-12-17T02:07:39.483Z,11.27
2022-12-17T02:10:28.348Z,12.27
2022-12-17T02:13:21.704Z,11.90
2022-12-17T02:16:15.085Z,11.73
2022-12-17T02:19:09.670Z,11.33
2022-12-17T02:21:58.807Z,10.50
2022-12-17T02:24:50.057Z,14.33
2022-12-17T02:27:37.129Z,11.73
2022-12-17T02:30:25.552Z,12.13
2022-12-17T02:33:12.987Z,11.53
2022-12-17T02:36:08.406Z,11.73
2022-12-17T02:38:53.963Z,10.67
2022-12-17T02:42:02.435Z,10.77
2022-12-17T02:44:49.993Z,10.63
2022-12-17T02:47:37.069Z,10.77
2022-12-17T02:50:23.480Z,11.37
2022-12-17T02:53:08.845Z,9.67
2022-12-17T02:55:55.128Z,11.10
2022-12-17T02:58:40.530Z,11.97
2022-12-17T03:01:26.299Z,11.23
2022-12-17T03:04:11.662Z,11.57
2022-12-17T03:07:10.754Z,10.93
2022-12-17T03:09:56.031Z,10.57
2022-12-17T03:12:42.478Z,11.90
2022-12-17T03:15:27.917Z,11.20
2022-12-17T03:18:13.290Z,11.03
2022-12-17T03:20:58.644Z,10.60
2022-12-17T03:23:43.970Z,13.50
2022-12-17T03:26:30.186Z,13.27
2022-12-17T03:29:15.580Z,11.57
2022-12-17T03:32:01.033Z,11.70
2022-12-17T03:34:46.531Z,9.93
2022-12-17T03:37:31.919Z,9.03
2022-12-17T03:40:17.525Z,9.73
2022-12-17T03:43:02.940Z,9.30
2022-12-17T03:45:48.412Z,8.27
2022-12-17T03:48:34.254Z,9.07
2022-12-17T03:51:20.212Z,7.97
2022-12-17T03:54:06.028Z,8.67
2022-12-17T03:56:51.599Z,8.87
2022-12-17T03:59:36.954Z,8.27
2022-12-17T04:02:22.418Z,9.40
2022-12-17T04:05:07.742Z,9.27
2022-12-17T04:07:53.011Z,9.33
2022-12-17T04:10:38.370Z,9.67
2022-12-17T04:13:24.535Z,11.27
2022-12-17T04:16:09.947Z,9.43
2022-12-17T04:18:55.261Z,10.17
2022-12-17T04:21:40.456Z,9.87
2022-12-17T04:24:25.672Z,9.17
2022-12-17T04:27:11.083Z,9.70
2022-12-17T04:29:56.405Z,9.23
2022-12-17T04:32:41.443Z,10.47
2022-12-17T04:35:26.759Z,10.63
2022-12-17T04:38:12.244Z,10.83
2022-12-17T04:40:57.688Z,9.83
2022-12-17T04:43:58.147Z,9.60
2022-12-17T04:46:47.026Z,8.20
2022-12-17T04:49:32.232Z,9.50
2022-12-17T04:52:17.614Z,8.67
2022-12-17T04:55:02.836Z,8.27
2022-12-17T04:57:49.430Z,9.80
2022-12-17T05:00:34.856Z,10.37
2022-12-17T05:03:25.274Z,8.70
2022-12-17T05:06:10.569Z,8.07
2022-12-17T05:08:55.817Z,8.47
2022-12-17T05:11:41.726Z,9.13
2022-12-17T05:14:27.139Z,8.43
2022-12-17T05:17:12.536Z,8.93
2022-12-17T05:19:57.978Z,9.93
2022-12-17T05:22:43.545Z,9.47
2022-12-17T05:25:28.881Z,8.47
2022-12-17T05:28:13.952Z,9.27
2022-12-17T05:30:59.407Z,9.47
2022-12-17T05:33:44.659Z,9.80
2022-12-17T05:36:31.259Z,11.10
2022-12-17T05:39:16.486Z,11.33
2022-12-17T05:42:01.775Z,11.37
2022-12-17T05:44:46.993Z,11.27
2022-12-17T05:47:32.577Z,11.60
2022-12-17T05:50:18.026Z,10.33
2022-12-17T05:53:03.402Z,11.27
2022-12-17T05:55:48.835Z,10.47
2022-12-17T05:58:34.756Z,10.20
2022-12-17T06:01:23.813Z,11.23
2022-12-17T06:04:10.307Z,10.73
2022-12-17T06:06:55.588Z,10.70
2022-12-17T06:09:41.030Z,10.90
2022-12-17T06:12:26.148Z,12.33
2022-12-17T06:15:11.678Z,10.90
2022-12-17T06:17:57.051Z,10.80
2022-12-17T06:20:42.428Z,12.00
2022-12-17T06:23:29.530Z,11.20
2022-12-17T06:26:16.342Z,11.57
2022-12-17T06:29:02.013Z,11.70
2022-12-17T06:32:04.301Z,11.80
2022-12-17T06:34:49.446Z,11.03
2022-12-17T06:37:34.750Z,11.40
2022-12-17T06:40:20.399Z,11.60
2022-12-17T06:43:15.729Z,11.33
2022-12-17T06:46:00.870Z,11.03
2022-12-17T06:48:46.015Z,10.27
2022-12-17T06:51:31.174Z,9.33
2022-12-17T06:54:16.678Z,10.10
2022-12-17T06:57:01.766Z,8.43
2022-12-17T06:59:47.220Z,8.03
2022-12-17T07:02:32.961Z,7.97
2022-12-17T07:05:18.341Z,8.90
2022-12-17T07:08:14.463Z,7.80
2022-12-17T07:10:59.888Z,8.17
2022-12-17T07:13:45.278Z,8.10
2022-12-17T07:16:30.546Z,8.77
2022-12-17T07:19:16.459Z,8.43
2022-12-17T07:22:01.801Z,9.67
2022-12-17T07:24:47.237Z,8.57
2022-12-17T07:27:32.899Z,8.33
2022-12-17T07:30:18.191Z,8.77
2022-12-17T07:33:03.627Z,8.13
2022-12-17T07:35:48.843Z,8.13
2022-12-17T07:38:34.291Z,7.60
2022-12-17T07:41:19.608Z,7.00
2022-12-17T07:44:04.712Z,7.00
2022-12-17T07:46:50.112Z,6.90
2022-12-17T07:49:35.747Z,7.17
2022-12-17T07:52:21.241Z,7.23
2022-12-17T07:55:06.587Z,7.73
2022-12-17T07:57:52.160Z,8.37
2022-12-17T08:00:37.697Z,8.37
2022-12-17T08:03:43.239Z,7.97
2022-12-17T08:06:28.909Z,7.77
2022-12-17T08:09:14.715Z,8.47
2022-12-17T08:12:00.416Z,8.77
2022-12-17T08:14:45.829Z,9.03
2022-12-17T08:17:31.248Z,8.17
2022-12-17T08:20:16.803Z,9.50
2022-12-17T08:23:02.178Z,9.57
2022-12-17T08:25:47.765Z,8.93
2022-12-17T08:28:50.199Z,9.23
2022-12-17T08:31:37.068Z,8.23
2022-12-17T08:34:22.542Z,7.90
2022-12-17T08:37:08.124Z,8.17
2022-12-17T08:39:58.279Z,7.73
2022-12-17T08:42:43.611Z,8.93
2022-12-17T08:45:29.721Z,8.30
2022-12-17T08:48:25.957Z,8.20
2022-12-17T08:51:12.248Z,7.17
2022-12-17T08:53:58.216Z,8.73
2022-12-17T08:56:44.058Z,7.90
2022-12-17T08:59:29.326Z,9.23
2022-12-17T09:02:14.618Z,9.13
2022-12-17T09:05:00.136Z,9.00
2022-12-17T09:07:45.292Z,8.20
2022-12-17T09:10:30.882Z,8.60
2022-12-17T09:13:20.622Z,8.13
2022-12-17T09:16:13.250Z,9.83
2022-12-17T09:18:58.764Z,8.87
2022-12-17T09:21:46.822Z,8.67
2022-12-17T09:24:32.335Z,8.90
2022-12-17T09:27:17.775Z,8.23
2022-12-17T09:30:03.038Z,7.87
2022-12-17T09:32:49.792Z,8.87
2022-12-17T09:35:35.219Z,8.17
2022-12-17T09:38:20.522Z,8.20
2022-12-17T09:41:08.726Z,7.80
2022-12-17T09:44:10.703Z,8.43
2022-12-17T09:47:06.866Z,7.27
2022-12-17T09:49:52.985Z,6.63
2022-12-17T09:52:48.918Z,7.27
2022-12-17T09:55:45.981Z,7.17
2022-12-17T09:58:39.189Z,7.23
2022-12-17T10:01:32.385Z,7.43
2022-12-17T10:04:17.706Z,7.83
2022-12-17T10:07:03.291Z,7.50
2022-12-17T10:09:52.106Z,9.03
2022-12-17T10:12:39.389Z,8.10
2022-12-17T10:15:26.704Z,8.50
2022-12-17T10:18:12.269Z,8.50
2022-12-17T10:21:09.544Z,7.93
2022-12-17T10:23:55.223Z,7.73
2022-12-17T10:26:44.609Z,9.43
2022-12-17T10:29:35.723Z,8.17
2022-12-17T10:32:34.721Z,8.93
2022-12-17T10:35:42.308Z,8.43
2022-12-17T10:38:42.364Z,8.57
2022-12-17T10:41:43.558Z,8.13
2022-12-17T10:44:46.677Z,9.00
2022-12-17T10:47:34.290Z,8.57
2022-12-17T10:50:23.286Z,9.33
2022-12-17T10:53:08.559Z,9.20
2022-12-17T10:55:55.167Z,9.00
2022-12-17T10:58:42.032Z,9.90
2022-12-17T11:01:31.447Z,10.27
2022-12-17T11:04:17.443Z,9.57
2022-12-17T11:07:09.600Z,9.83
2022-12-17T11:10:09.839Z,9.83
2022-12-17T11:13:13.179Z,10.57
2022-12-17T11:16:13.178Z,11.30
2022-12-17T11:19:03.712Z,12.27
2022-12-17T11:21:54.096Z,11.90
2022-12-17T11:24:46.718Z,11.47
2022-12-17T11:27:38.889Z,12.03
2022-12-17T11:30:34.942Z,13.07
2022-12-17T11:33:27.302Z,12.70
2022-12-17T11:36:33.799Z,13.87
2022-12-17T11:39:40.216Z,13.50
2022-12-17T11:42:42.521Z,14.00
2022-12-17T11:45:48.426Z,14.40
2022-12-17T11:49:11.172Z,14.13
2022-12-17T11:52:54.894Z,13.40
2022-12-17T11:55:52.992Z,14.60
2022-12-17T11:59:10.488Z,13.37
2022-12-17T12:02:01.732Z,14.03
2022-12-17T12:05:05.893Z,13.63
2022-12-17T12:08:30.343Z,13.63
2022-12-17T12:11:39.349Z,14.30
2022-12-17T12:14:40.341Z,13.93
2022-12-17T12:17:58.030Z,20.13
2022-12-17T12:20:49.680Z,14.90
2022-12-17T12:23:54.188Z,14.33
2022-12-17T12:26:56.354Z,14.40
2022-12-17T12:29:47.913Z,15.40
2022-12-17T12:32:42.074Z,15.87
2022-12-17T12:35:35.099Z,14.80
2022-12-17T12:38:21.687Z,14.20
2022-12-17T12:41:37.663Z,15.47
2022-12-17T12:44:35.297Z,14.30
2022-12-17T12:47:31.491Z,16.40
2022-12-17T12:51:00.989Z,16.63
2022-12-17T12:53:46.486Z,14.93
2022-12-17T12:56:52.728Z,16.03
2022-12-17T12:59:47.705Z,15.30
2022-12-17T13:02:49.748Z,15.47
2022-12-17T13:05:34.870Z,15.47
2022-12-17T13:08:08.867Z,15.10
2022-12-17T13:10:37.358Z,15.03
2022-12-17T13:13:20.627Z,17.40
2022-12-17T13:15:52.252Z,15.80
2022-12-17T13:18:34.176Z,16.07
2022-12-17T13:21:14.951Z,16.13
2022-12-17T13:23:42.078Z,14.57
2022-12-17T13:26:43.320Z,15.83
2022-12-17T13:29:30.115Z,13.70
2022-12-17T13:32:06.426Z,15.13
2022-12-17T13:34:51.207Z,15.20
2022-12-17T13:37:23.981Z,15.03
2022-12-17T13:40:13.503Z,14.43
2022-12-17T13:42:40.402Z,14.70
2022-12-17T13:45:07.580Z,14.80
2022-12-17T13:47:35.788Z,15.10
2022-12-17T13:53:13.000Z,15.20
2022-12-17T13:55:40.241Z,13.70
2022-12-17T13:58:26.708Z,14.27
2022-12-17T14:01:08.825Z,12.80
2022-12-17T14:04:04.638Z,10.63
2022-12-17T14:06:36.462Z,11.07
2022-12-17T14:09:03.934Z,10.47
2022-12-17T14:11:51.323Z,10.30
2022-12-17T14:14:31.718Z,11.20
2022-12-17T14:16:59.338Z,11.33
2022-12-17T14:19:28.182Z,12.03
2022-12-17T14:21:56.060Z,10.07
2022-12-17T14:24:27.285Z,11.43
2022-12-17T14:26:59.228Z,9.90
2022-12-17T14:29:31.975Z,10.33
2022-12-17T14:32:01.784Z,9.80
2022-12-17T14:34:30.052Z,9.40
2022-12-17T14:36:58.896Z,10.13
2022-12-17T14:39:31.397Z,10.90
2022-12-17T14:42:26.965Z,11.13
2022-12-17T14:45:00.083Z,11.03
2022-12-17T14:47:32.487Z,9.53
2022-12-17T14:50:30.500Z,9.10
2022-12-17T14:52:59.623Z,7.53
2022-12-17T14:55:37.813Z,8.73
2022-12-17T14:58:09.305Z,11.60
2022-12-17T15:00:43.362Z,12.10
2022-12-17T15:03:28.006Z,13.23
2022-12-17T15:06:04.271Z,13.97
2022-12-17T15:08:39.511Z,14.10
2022-12-17T15:11:07.162Z,14.33
2022-12-17T15:13:34.167Z,13.10
2022-12-17T15:16:00.854Z,11.27
2022-12-17T15:18:27.678Z,12.60
2022-12-17T15:20:54.802Z,13.23
2022-12-17T15:23:23.220Z,11.20
2022-12-17T15:25:52.703Z,12.37
2022-12-17T15:28:20.442Z,10.23
2022-12-17T15:30:48.774Z,11.87
2022-12-17T15:33:16.148Z,10.47
2022-12-17T15:35:43.252Z,9.80
2022-12-17T15:38:11.466Z,10.47
2022-12-17T15:40:38.653Z,10.33
2022-12-17T15:43:11.352Z,9.30
2022-12-17T15:45:44.967Z,9.47
2022-12-17T15:48:14.214Z,8.47
2022-12-17T15:50:41.105Z,8.43
2022-12-17T15:53:09.256Z,7.77
2022-12-17T15:55:37.495Z,7.00
2022-12-17T15:58:05.077Z,6.50
2022-12-17T16:00:32.265Z,6.53
2022-12-17T16:02:59.310Z,6.10
2022-12-17T16:05:26.302Z,5.73
2022-12-17T16:07:53.282Z,6.27
2022-12-17T16:10:20.105Z,6.33
2022-12-17T16:12:47.027Z,6.73
2022-12-17T16:15:14.123Z,6.07
2022-12-17T16:17:41.090Z,11.17
2022-12-17T16:20:08.403Z,9.03
2022-12-17T16:22:35.523Z,8.07
2022-12-17T16:25:02.416Z,7.33
2022-12-17T16:27:29.333Z,6.90
2022-12-17T16:29:56.235Z,7.80
2022-12-17T16:32:23.009Z,7.33
2022-12-17T16:34:49.860Z,7.47
2022-12-17T16:37:16.699Z,8.23
2022-12-17T16:39:43.704Z,9.17
2022-12-17T16:42:11.400Z,8.20
2022-12-17T16:44:38.345Z,8.07
2022-12-17T16:47:05.104Z,7.37
2022-12-17T16:49:32.077Z,7.03
2022-12-17T16:51:59.573Z,8.07
2022-12-17T16:54:29.313Z,13.20
2022-12-17T16:56:56.380Z,12.20
2022-12-17T16:59:26.094Z,11.87
2022-12-17T17:01:53.225Z,12.40
2022-12-17T17:04:22.740Z,14.40
2022-12-17T17:06:52.155Z,15.27
2022-12-17T17:09:19.815Z,16.53
2022-12-17T17:11:51.382Z,18.73
2022-12-17T17:14:19.606Z,16.87
2022-12-17T17:16:46.840Z,14.77
2022-12-17T17:19:13.765Z,12.87
2022-12-17T17:21:47.591Z,11.30
2022-12-17T17:24:20.960Z,11.13
2022-12-17T17:26:49.656Z,10.87
2022-12-17T17:29:16.827Z,9.13
2022-12-17T17:32:09.281Z,9.50
2022-12-17T17:34:30.470Z,8.23
2022-12-17T17:36:57.546Z,9.50
2022-12-17T17:39:24.369Z,9.30
2022-12-17T17:41:51.723Z,9.27
2022-12-17T17:44:18.728Z,8.40
2022-12-17T17:46:45.519Z,9.27
2022-12-17T17:49:12.741Z,8.53
2022-12-17T17:54:29.799Z,9.27
2022-12-17T17:56:56.468Z,8.47
2022-12-17T17:59:30.891Z,7.83
2022-12-17T18:02:00.600Z,8.00
2022-12-17T18:04:27.751Z,7.77
2022-12-17T18:09:41.746Z,6.27
2022-12-17T18:12:27.264Z,6.20
2022-12-17T18:17:40.990Z,7.73
2022-12-17T18:20:10.071Z,8.33
2022-12-17T18:22:37.343Z,7.30
2022-12-17T18:25:05.421Z,6.90
2022-12-17T18:27:32.524Z,6.67
2022-12-17T18:29:59.210Z,6.80
2022-12-17T18:32:26.008Z,7.90
2022-12-17T18:34:52.869Z,8.50
2022-12-17T18:37:20.298Z,8.57
2022-12-17T18:39:47.320Z,8.53
2022-12-17T18:42:32.919Z,8.43
2022-12-17T18:44:59.587Z,7.03
2022-12-17T18:47:27.205Z,5.67
2022-12-17T18:49:53.951Z,6.13
2022-12-17T18:52:22.607Z,5.63
2022-12-17T18:54:49.894Z,7.93
2022-12-17T18:57:16.624Z,8.87
2022-12-17T18:59:43.594Z,9.20
2022-12-17T19:02:12.559Z,9.07
2022-12-17T19:04:40.026Z,6.47
2022-12-17T19:07:07.281Z,7.27
2022-12-17T19:09:35.875Z,6.77
2022-12-17T19:12:05.011Z,5.80
2022-12-17T19:14:32.161Z,6.37
2022-12-17T19:17:00.536Z,7.13
2022-12-17T19:19:27.457Z,7.63
2022-12-17T19:21:55.860Z,8.70
2022-12-17T19:24:23.627Z,8.47
2022-12-17T19:26:51.085Z,7.67
2022-12-17T19:29:19.734Z,8.20
2022-12-17T19:31:46.692Z,9.50
2022-12-17T19:34:15.773Z,7.67
2022-12-17T19:36:43.349Z,7.37
2022-12-17T19:39:16.200Z,7.03
2022-12-17T19:41:43.345Z,6.67
2022-12-17T19:44:15.331Z,6.63
2022-12-17T19:46:42.840Z,6.17
2022-12-17T19:49:14.478Z,7.00
2022-12-17T19:51:44.014Z,6.87
2022-12-17T19:54:12.964Z,5.97
2022-12-17T19:56:39.656Z,6.47
2022-12-17T19:59:07.959Z,5.50
2022-12-17T20:01:37.403Z,6.10
2022-12-17T20:04:04.986Z,5.90
2022-12-17T20:06:33.302Z,7.83
2022-12-17T20:09:01.518Z,6.07
2022-12-17T20:11:34.833Z,6.30
2022-12-17T20:14:05.117Z,6.60
2022-12-17T20:16:35.361Z,8.40
2022-12-17T20:19:04.674Z,7.10
2022-12-17T20:21:31.424Z,7.17
2022-12-17T20:23:58.274Z,7.70
2022-12-17T20:26:25.183Z,7.03
2022-12-17T20:28:52.654Z,6.90
2022-12-17T20:31:19.472Z,7.10
2022-12-17T20:33:46.425Z,6.63
2022-12-17T20:36:15.739Z,6.70
2022-12-17T20:38:43.708Z,6.03
2022-12-17T20:41:12.724Z,7.40
2022-12-17T20:43:39.712Z,7.33
2022-12-17T20:46:09.401Z,6.80
2022-12-17T20:48:38.748Z,7.13
2022-12-17T20:51:18.060Z,6.45
2022-12-17T20:53:46.103Z,7.15
2022-12-17T20:56:16.357Z,7.80
2022-12-17T20:58:44.141Z,7.45
2022-12-17T21:01:20.029Z,7.85
2022-12-17T21:03:49.549Z,7.13
2022-12-17T21:06:20.291Z,7.10
2022-12-17T21:08:50.180Z,7.13
2022-12-17T21:11:22.919Z,7.60
2022-12-17T21:13:49.988Z,8.73
2022-12-17T21:16:22.531Z,8.65
2022-12-17T21:18:49.565Z,8.75
2022-12-17T21:21:19.696Z,9.02
2022-12-17T21:23:47.699Z,8.57
2022-12-17T21:26:23.870Z,8.13
2022-12-17T21:28:52.730Z,7.45
2022-12-17T21:31:21.200Z,8.48
2022-12-17T21:33:50.074Z,7.85
2022-12-17T21:36:19.611Z,8.15
2022-12-17T21:38:47.021Z,8.80
2022-12-17T21:41:16.250Z,8.70
2022-12-17T21:43:43.717Z,8.80
2022-12-17T21:46:12.080Z,8.95
2022-12-17T21:48:42.088Z,8.57
2022-12-17T21:51:11.378Z,8.43
2022-12-17T21:53:42.389Z,8.63
2022-12-17T21:56:12.624Z,8.05
2022-12-17T21:58:40.868Z,8.70
2022-12-17T22:01:18.639Z,9.27
2022-12-17T22:03:53.807Z,8.43
2022-12-17T22:06:24.862Z,8.68
2022-12-17T22:09:04.193Z,9.20
2022-12-17T22:11:40.246Z,8.40
2022-12-17T22:14:18.902Z,8.02
2022-12-17T22:16:49.321Z,7.70
2022-12-17T22:19:22.450Z,7.32
2022-12-17T22:21:54.062Z,7.72
2022-12-17T22:24:25.377Z,8.25
2022-12-17T22:26:59.475Z,7.85
2022-12-17T22:29:46.241Z,7.88
2022-12-17T22:32:31.846Z,7.97
2022-12-17T22:36:27.311Z,7.82
2022-12-17T22:40:41.875Z,7.85
2022-12-17T22:43:51.362Z,7.63
2022-12-17T22:44:43.212Z,8.25
2022-12-17T22:46:17.273Z,7.93
2022-12-17T22:48:44.254Z,7.30
2022-12-17T22:51:14.567Z,7.38
2022-12-17T22:53:45.646Z,7.22
2022-12-17T22:56:28.992Z,8.63
2022-12-17T22:58:59.705Z,7.93
2022-12-17T23:01:26.874Z,8.95
2022-12-17T23:03:57.844Z,8.68
2022-12-17T23:06:25.349Z,8.90
2022-12-17T23:08:52.379Z,7.68
2022-12-17T23:11:22.435Z,8.82
2022-12-17T23:13:49.796Z,7.50
2022-12-17T23:16:17.084Z,6.82
2022-12-17T23:18:45.116Z,7.18
2022-12-17T23:21:15.437Z,6.32
2022-12-17T23:23:43.134Z,6.70
2022-12-17T23:26:18.394Z,7.40
2022-12-17T23:28:45.856Z,6.20
2022-12-17T23:31:16.444Z,6.15
2022-12-17T23:33:43.886Z,6.55
2022-12-17T23:36:13.601Z,6.20
2022-12-17T23:38:41.332Z,5.72
2022-12-17T23:41:18.088Z,6.40
2022-12-17T23:43:45.893Z,4.75
2022-12-17T23:46:13.320Z,6.57
2022-12-17T23:48:45.548Z,7.45
2022-12-17T23:51:14.693Z,6.90
2022-12-17T23:53:42.874Z,6.65
2022-12-17T23:56:11.991Z,6.07
2022-12-17T23:58:40.877Z,6.63
